createdAt,value
2022-08-10T00:00:23.892Z,19.23
2022-08-10T00:05:13.369Z,19.16
2022-08-10T00:10:03.123Z,19.13
2022-08-10T00:14:55.286Z,19.07
2022-08-10T00:20:04.054Z,19.06
2022-08-10T00:24:57.439Z,19.00
2022-08-10T00:29:46.867Z,18.94
2022-08-10T00:34:38.948Z,18.89
2022-08-10T00:39:28.672Z,18.84
2022-08-10T00:44:18.318Z,18.82
2022-08-10T00:49:08.035Z,18.65
2022-08-10T00:54:00.153Z,18.56
2022-08-10T00:58:50.046Z,18.51
2022-08-10T01:04:40.052Z,18.50
2022-08-10T01:08:50.466Z,18.41
2022-08-10T01:13:47.280Z,18.38
2022-08-10T01:18:40.677Z,18.28
2022-08-10T01:23:53.916Z,18.28
2022-08-10T01:28:53.417Z,18.23
2022-08-10T01:33:58.419Z,18.14
2022-08-10T01:38:52.781Z,18.06
2022-08-10T01:43:45.277Z,17.95
2022-08-10T01:48:35.358Z,17.91
2022-08-10T01:53:40.164Z,17.88
2022-08-10T01:58:32.364Z,17.86
2022-08-10T02:03:22.881Z,17.82
2022-08-10T02:08:14.539Z,17.73
2022-08-10T02:13:06.916Z,17.72
2022-08-10T02:18:01.804Z,17.63
2022-08-10T02:22:54.803Z,17.61
2022-08-10T02:27:45.699Z,17.58
2022-08-10T02:32:38.790Z,17.58
2022-08-10T02:37:29.852Z,17.53
2022-08-10T02:45:23.751Z,17.46
2022-08-10T02:47:51.337Z,17.45
2022-08-10T02:52:46.442Z,17.40
2022-08-10T02:58:16.636Z,17.37
2022-08-10T03:02:55.344Z,17.36
2022-08-10T03:07:50.145Z,17.32
2022-08-10T03:12:40.544Z,17.28
2022-08-10T03:17:31.535Z,17.25
2022-08-10T03:22:21.732Z,17.20
2022-08-10T03:27:15.572Z,17.14
2022-08-10T03:32:07.083Z,17.09
2022-08-10T03:36:56.893Z,17.04
2022-08-10T03:41:54.196Z,16.94
2022-08-10T03:46:48.750Z,16.87
2022-08-10T03:51:38.487Z,16.87
2022-08-10T03:56:32.050Z,16.87
2022-08-10T04:02:44.653Z,16.82
2022-08-10T04:06:36.041Z,16.74
2022-08-10T04:11:25.519Z,16.71
2022-08-10T04:16:15.422Z,16.63
2022-08-10T04:21:07.630Z,16.58
2022-08-10T04:26:02.308Z,16.54
2022-08-10T04:30:53.271Z,16.51
2022-08-10T04:35:43.126Z,16.53
2022-08-10T04:40:32.622Z,16.52
2022-08-10T04:45:24.834Z,16.50
2022-08-10T04:50:34.305Z,16.44
2022-08-10T04:55:24.447Z,16.36
2022-08-10T05:00:19.196Z,16.35
2022-08-10T05:05:11.958Z,16.36
2022-08-10T05:10:06.089Z,16.37
2022-08-10T05:14:58.069Z,16.37
2022-08-10T05:20:03.757Z,16.39
2022-08-10T05:24:58.010Z,16.34
2022-08-10T05:30:02.590Z,16.32
2022-08-10T05:34:52.445Z,16.27
2022-08-10T05:39:42.078Z,16.29
2022-08-10T05:44:37.204Z,16.32
2022-08-10T05:49:30.363Z,16.36
2022-08-10T05:54:30.227Z,16.41
2022-08-10T06:00:30.846Z,16.42
2022-08-10T06:04:49.554Z,16.47
2022-08-10T06:09:59.015Z,16.53
2022-08-10T06:15:06.001Z,16.61
2022-08-10T06:20:03.223Z,16.72
2022-08-10T06:25:26.922Z,16.79
2022-08-10T06:30:19.878Z,16.87
2022-08-10T06:35:22.753Z,17.00
2022-08-10T06:40:13.472Z,17.12
2022-08-10T06:45:06.099Z,17.22
2022-08-10T06:49:59.798Z,17.30
2022-08-10T06:54:57.139Z,17.44
2022-08-10T06:59:49.385Z,17.60
2022-08-10T07:04:43.258Z,17.69
2022-08-10T07:09:34.895Z,17.80
2022-08-10T07:14:28.720Z,17.92
2022-08-10T07:19:18.893Z,18.05
2022-08-10T07:24:09.551Z,18.15
2022-08-10T07:28:59.950Z,18.28
2022-08-10T07:33:55.301Z,18.39
2022-08-10T07:38:49.162Z,18.50
2022-08-10T07:43:40.482Z,18.63
2022-08-10T07:48:32.763Z,18.73
2022-08-10T07:53:27.092Z,18.87
2022-08-10T07:58:18.870Z,19.01
2022-08-10T08:03:09.474Z,19.18
2022-08-10T08:08:00.131Z,19.35
2022-08-10T08:12:53.391Z,19.65
2022-08-10T08:17:43.949Z,19.96
2022-08-10T08:24:05.241Z,20.29
2022-08-10T08:27:47.893Z,20.58
2022-08-10T08:32:42.125Z,20.83
2022-08-10T08:38:32.043Z,21.16
2022-08-10T08:42:57.927Z,21.50
2022-08-10T08:48:06.468Z,21.76
2022-08-10T08:53:00.294Z,22.04
2022-08-10T08:57:56.372Z,22.38
2022-08-10T09:02:55.017Z,22.68
2022-08-10T09:08:03.534Z,23.06
2022-08-10T09:12:57.394Z,23.35
2022-08-10T09:17:53.410Z,23.51
2022-08-10T09:22:45.216Z,23.72
2022-08-10T09:27:37.369Z,23.94
2022-08-10T09:36:15.490Z,24.30
2022-08-10T09:38:03.188Z,24.80
2022-08-10T09:43:23.543Z,25.08
2022-08-10T09:48:14.010Z,25.27
2022-08-10T09:53:08.505Z,25.58
2022-08-10T09:58:07.698Z,26.07
2022-08-10T10:03:17.051Z,26.18
2022-08-10T10:08:14.014Z,26.52
2022-08-10T10:13:06.305Z,26.79
2022-08-10T10:18:16.735Z,26.76
2022-08-10T10:23:10.914Z,26.99
2022-08-10T10:28:08.776Z,27.11
2022-08-10T10:33:02.281Z,27.38
2022-08-10T10:38:01.356Z,27.64
2022-08-10T10:42:58.844Z,27.94
2022-08-10T10:47:58.291Z,28.28
2022-08-10T10:52:52.413Z,28.44
2022-08-10T10:57:58.643Z,28.62
2022-08-10T11:02:57.308Z,28.82
2022-08-10T11:08:01.081Z,29.04
2022-08-10T11:13:03.038Z,29.24
2022-08-10T11:18:14.123Z,29.44
2022-08-10T11:23:15.900Z,29.57
2022-08-10T11:28:11.228Z,29.54
2022-08-10T11:33:09.923Z,29.47
2022-08-10T11:38:31.368Z,29.52
2022-08-10T11:43:19.211Z,29.39
2022-08-10T11:48:53.240Z,29.34
2022-08-10T11:53:25.803Z,29.57
2022-08-10T11:58:30.752Z,29.59
2022-08-10T12:03:21.417Z,29.33
2022-08-10T12:10:02.575Z,29.48
2022-08-10T12:13:26.908Z,29.72
2022-08-10T12:18:18.069Z,29.86
2022-08-10T12:23:13.216Z,29.89
2022-08-10T12:28:05.091Z,29.97
2022-08-10T12:32:59.371Z,30.04
2022-08-10T12:37:51.681Z,30.06
2022-08-10T12:42:45.192Z,30.07
2022-08-10T12:47:55.931Z,30.26
2022-08-10T12:52:54.228Z,30.37
2022-08-10T12:57:44.676Z,30.44
2022-08-10T13:02:35.398Z,30.39
2022-08-10T13:08:25.579Z,30.29
2022-08-10T13:12:40.720Z,30.38
2022-08-10T13:17:39.608Z,30.54
2022-08-10T13:22:31.957Z,30.69
2022-08-10T13:28:00.547Z,30.72
2022-08-10T13:32:40.624Z,30.76
2022-08-10T13:37:31.252Z,30.77
2022-08-10T13:42:31.913Z,30.75
2022-08-10T13:47:23.083Z,30.80
2022-08-10T13:52:17.946Z,30.88
2022-08-10T13:57:08.475Z,30.90
2022-08-10T14:01:59.080Z,30.84
2022-08-10T14:06:53.026Z,30.76
2022-08-10T14:11:45.937Z,30.85
2022-08-10T14:16:36.324Z,30.83
2022-08-10T14:21:25.852Z,30.84
2022-08-10T14:26:18.927Z,30.75
2022-08-10T14:31:12.946Z,30.84
2022-08-10T14:36:22.584Z,30.99
2022-08-10T14:42:01.868Z,31.04
2022-08-10T14:46:34.170Z,30.77
2022-08-10T14:51:44.422Z,30.82
2022-08-10T14:56:38.931Z,31.01
2022-08-10T15:02:00.563Z,31.07
2022-08-10T15:06:42.464Z,31.06
2022-08-10T15:12:11.899Z,30.95
2022-08-10T15:16:46.373Z,30.94
2022-08-10T15:21:43.888Z,31.08
2022-08-10T15:26:34.660Z,31.07
2022-08-10T15:31:26.023Z,30.97
2022-08-10T15:36:34.881Z,31.06
2022-08-10T15:41:58.834Z,31.21
2022-08-10T15:46:49.279Z,31.32
2022-08-10T15:51:53.482Z,31.41
2022-08-10T15:56:46.695Z,31.41
2022-08-10T16:02:12.777Z,31.15
2022-08-10T16:06:51.967Z,30.99
2022-08-10T16:11:43.860Z,30.76
2022-08-10T16:16:35.410Z,30.61
2022-08-10T16:21:26.950Z,30.30
2022-08-10T16:26:21.028Z,30.11
2022-08-10T16:31:16.030Z,30.00
2022-08-10T16:36:07.379Z,29.98
2022-08-10T16:40:58.107Z,29.87
2022-08-10T16:45:51.589Z,29.76
2022-08-10T16:50:45.422Z,29.72
2022-08-10T16:55:48.504Z,29.60
2022-08-10T17:00:40.239Z,29.61
2022-08-10T17:06:03.389Z,29.55
2022-08-10T17:10:44.066Z,29.41
2022-08-10T17:15:33.944Z,29.30
2022-08-10T17:20:30.419Z,29.22
2022-08-10T17:25:48.393Z,29.14
2022-08-10T17:30:57.260Z,29.09
2022-08-10T17:35:50.109Z,28.88
2022-08-10T17:40:49.073Z,28.81
2022-08-10T17:45:47.640Z,28.67
2022-08-10T17:50:41.047Z,28.60
2022-08-10T17:55:42.426Z,28.59
2022-08-10T18:00:35.984Z,28.54
2022-08-10T18:05:25.750Z,28.40
2022-08-10T18:10:17.917Z,28.25
2022-08-10T18:15:12.136Z,28.23
2022-08-10T18:20:07.141Z,28.11
2022-08-10T18:24:59.976Z,27.95
2022-08-10T18:29:51.316Z,27.76
2022-08-10T18:34:41.643Z,27.61
2022-08-10T18:39:36.575Z,27.50
2022-08-10T18:44:31.297Z,27.41
2022-08-10T18:49:22.665Z,27.31
2022-08-10T18:54:38.897Z,27.11
2022-08-10T19:00:08.447Z,27.04
2022-08-10T19:05:31.061Z,26.92
2022-08-10T19:10:30.734Z,26.78
2022-08-10T19:15:30.249Z,26.59
2022-08-10T19:20:29.691Z,26.44
2022-08-10T19:26:40.955Z,26.31
2022-08-10T19:30:53.375Z,26.16
2022-08-10T19:36:03.701Z,26.03
2022-08-10T19:41:09.967Z,25.81
2022-08-10T19:46:14.337Z,25.63
2022-08-10T19:51:15.837Z,25.53
2022-08-10T19:56:31.000Z,25.44
2022-08-10T20:01:54.380Z,25.36
2022-08-10T20:06:49.426Z,25.28
2022-08-10T20:11:47.426Z,25.15
2022-08-10T20:16:46.010Z,25.04
2022-08-10T20:21:49.510Z,24.95
2022-08-10T20:26:49.883Z,24.83
2022-08-10T20:31:43.816Z,24.69
2022-08-10T20:36:39.584Z,24.58
2022-08-10T20:41:46.191Z,24.53
2022-08-10T20:46:38.616Z,24.40
2022-08-10T20:51:58.882Z,24.34
2022-08-10T20:56:52.120Z,24.26
2022-08-10T21:02:06.163Z,24.13
2022-08-10T21:07:07.611Z,24.15
2022-08-10T21:12:32.111Z,24.18
2022-08-10T21:17:37.297Z,24.22
2022-08-10T21:22:29.415Z,24.20
2022-08-10T21:27:33.897Z,24.15
2022-08-10T21:32:27.491Z,24.04
2022-08-10T21:37:20.523Z,23.93
2022-08-10T21:42:26.316Z,23.89
2022-08-10T21:47:41.928Z,23.90
2022-08-10T21:53:00.863Z,23.88
2022-08-10T21:58:09.186Z,23.80
2022-08-10T22:03:12.839Z,23.75
2022-08-10T22:08:23.623Z,23.72
2022-08-10T22:13:32.639Z,23.68
2022-08-10T22:18:39.967Z,23.58
2022-08-10T22:24:16.774Z,23.47
2022-08-10T22:29:22.202Z,23.42
2022-08-10T22:34:37.496Z,23.37
2022-08-10T22:40:11.355Z,23.38
2022-08-10T22:45:15.310Z,23.31
2022-08-10T22:50:08.485Z,23.27
2022-08-10T22:55:18.156Z,23.20
2022-08-10T23:00:15.801Z,23.14
2022-08-10T23:05:08.559Z,23.09
2022-08-10T23:10:06.723Z,23.05
2022-08-10T23:15:09.928Z,22.99
2022-08-10T23:20:04.303Z,22.92
2022-08-10T23:24:55.190Z,22.86
2022-08-10T23:30:10.182Z,22.79
2022-08-10T23:36:31.881Z,22.74
2022-08-10T23:40:13.714Z,22.59
2022-08-10T23:45:06.657Z,22.58
2022-08-10T23:49:57.905Z,22.49
2022-08-10T23:54:54.525Z,22.45
2022-08-10T23:59:44.653Z,22.35
